sensor_id;sensor_type;location;lat;lon;timestamp;pressure;altitude;pressure_sealevel;temperature;humidity
73651;BME280;61944;52.538;6.108;2023-03-19T00:02:20;100969.63;;;10.51;100.00
73651;BME280;61944;52.538;6.108;2023-03-19T00:04:46;100968.81;;;10.51;100.00
73651;BME280;61944;52.538;6.108;2023-03-19T00:07:12;100962.34;;;10.47;100.00
73651;BME280;61944;52.538;6.108;2023-03-19T00:09:38;100971.19;;;10.49;100.00
73651;BME280;61944;52.538;6.108;2023-03-19T00:12:03;100961.94;;;10.45;100.00
73651;BME280;61944;52.538;6.108;2023-03-19T00:14:29;100979.16;;;10.47;100.00
73651;BME280;61944;52.538;6.108;2023-03-19T00:16:54;100979.22;;;10.50;100.00
73651;BME280;61944;52.538;6.108;2023-03-19T00:19:20;100975.19;;;10.48;100.00
73651;BME280;61944;52.538;6.108;2023-03-19T00:21:46;100974.41;;;10.51;100.00
73651;BME280;61944;52.538;6.108;2023-03-19T00:24:11;100980.78;;;10.48;100.00
73651;BME280;61944;52.538;6.108;2023-03-19T00:26:37;100979.94;;;10.47;100.00
73651;BME280;61944;52.538;6.108;2023-03-19T00:29:03;100979.16;;;10.47;100.00
73651;BME280;61944;52.538;6.108;2023-03-19T00:31:32;100980.72;;;10.44;100.00
73651;BME280;61944;52.538;6.108;2023-03-19T00:33:59;100980.78;;;10.48;100.00
73651;BME280;61944;52.538;6.108;2023-03-19T00:36:28;100981.84;;;10.40;100.00
73651;BME280;61944;52.538;6.108;2023-03-19T00:38:54;100984.19;;;10.37;100.00
73651;BME280;61944;52.538;6.108;2023-03-19T00:41:19;100986.56;;;10.35;100.00
73651;BME280;61944;52.538;6.108;2023-03-19T00:43:45;100980.97;;;10.35;100.00
73651;BME280;61944;52.538;6.108;2023-03-19T00:46:11;100985.38;;;10.36;100.00
73651;BME280;61944;52.538;6.108;2023-03-19T00:48:36;100983.34;;;10.33;100.00
73651;BME280;61944;52.538;6.108;2023-03-19T00:51:03;100982.91;;;10.31;100.00
73651;BME280;61944;52.538;6.108;2023-03-19T00:53:29;100982.78;;;10.28;100.00
73651;BME280;61944;52.538;6.108;2023-03-19T00:55:54;100991.56;;;10.26;100.00
73651;BME280;61944;52.538;6.108;2023-03-19T00:58:20;100985.41;;;10.17;100.00
73651;BME280;61944;52.538;6.108;2023-03-19T01:00:45;100991.50;;;10.23;100.00
73651;BME280;61944;52.538;6.108;2023-03-19T01:03:10;100983.34;;;10.14;100.00
73651;BME280;61944;52.538;6.108;2023-03-19T01:05:36;100983.97;;;10.04;100.00
73651;BME280;61944;52.538;6.108;2023-03-19T01:08:02;100992.41;;;10.07;100.00
73651;BME280;61944;52.538;6.108;2023-03-19T01:10:27;100992.41;;;10.07;100.00
73651;BME280;61944;52.538;6.108;2023-03-19T01:12:52;100985.16;;;10.03;100.00
73651;BME280;61944;52.538;6.108;2023-03-19T01:15:18;100998.69;;;10.01;100.00
73651;BME280;61944;52.538;6.108;2023-03-19T01:17:44;100994.16;;;9.92;100.00
73651;BME280;61944;52.538;6.108;2023-03-19T01:20:10;100992.66;;;9.98;100.00
73651;BME280;61944;52.538;6.108;2023-03-19T01:22:43;100989.75;;;9.91;100.00
73651;BME280;61944;52.538;6.108;2023-03-19T01:25:10;100979.81;;;9.94;100.00
73651;BME280;61944;52.538;6.108;2023-03-19T01:27:36;100988.56;;;9.92;100.00
73651;BME280;61944;52.538;6.108;2023-03-19T01:30:02;100987.44;;;9.97;100.00
73651;BME280;61944;52.538;6.108;2023-03-19T01:32:28;100991.78;;;9.94;100.00
73651;BME280;61944;52.538;6.108;2023-03-19T01:34:53;100979.88;;;9.97;100.00
73651;BME280;61944;52.538;6.108;2023-03-19T01:37:19;100989.31;;;9.89;100.00
73651;BME280;61944;52.538;6.108;2023-03-19T01:39:45;100977.44;;;9.96;100.00
73651;BME280;61944;52.538;6.108;2023-03-19T01:42:11;100982.22;;;9.95;100.00
73651;BME280;61944;52.538;6.108;2023-03-19T01:44:38;100980.91;;;9.89;100.00
73651;BME280;61944;52.538;6.108;2023-03-19T01:47:51;100984.44;;;9.86;100.00
73651;BME280;61944;52.538;6.108;2023-03-19T01:49:53;100986.78;;;10.04;100.00
73651;BME280;61944;52.538;6.108;2023-03-19T01:52:20;100980.69;;;9.98;100.00
73651;BME280;61944;52.538;6.108;2023-03-19T01:54:48;100982.97;;;9.92;100.00
73651;BME280;61944;52.538;6.108;2023-03-19T01:57:15;100979.91;;;10.01;100.00
73651;BME280;61944;52.538;6.108;2023-03-19T01:59:44;100964.25;;;9.96;100.00
73651;BME280;61944;52.538;6.108;2023-03-19T02:02:27;100983.84;;;9.96;100.00
73651;BME280;61944;52.538;6.108;2023-03-19T02:05:13;100974.28;;;9.97;100.00
73651;BME280;61944;52.538;6.108;2023-03-19T02:07:42;100981.41;;;9.95;100.00
73651;BME280;61944;52.538;6.108;2023-03-19T02:10:12;100979.00;;;9.93;100.00
73651;BME280;61944;52.538;6.108;2023-03-19T02:12:38;100979.72;;;9.90;100.00
73651;BME280;61944;52.538;6.108;2023-03-19T02:15:04;100987.81;;;9.95;100.00
73651;BME280;61944;52.538;6.108;2023-03-19T02:17:31;100995.22;;;10.07;100.00
73651;BME280;61944;52.538;6.108;2023-03-19T02:20:08;100993.63;;;10.06;100.00
73651;BME280;61944;52.538;6.108;2023-03-19T02:22:42;100988.75;;;10.03;100.00
73651;BME280;61944;52.538;6.108;2023-03-19T02:25:23;100995.69;;;9.90;100.00
73651;BME280;61944;52.538;6.108;2023-03-19T02:27:51;100992.53;;;9.91;100.00
73651;BME280;61944;52.538;6.108;2023-03-19T02:30:30;101001.66;;;9.88;100.00
73651;BME280;61944;52.538;6.108;2023-03-19T02:32:56;100991.66;;;9.87;100.00
73651;BME280;61944;52.538;6.108;2023-03-19T02:35:21;100991.06;;;9.78;100.00
73651;BME280;61944;52.538;6.108;2023-03-19T02:37:47;100998.13;;;9.91;100.00
73651;BME280;61944;52.538;6.108;2023-03-19T02:40:18;100997.09;;;9.80;100.00
73651;BME280;61944;52.538;6.108;2023-03-19T02:42:45;101001.09;;;9.79;100.00
73651;BME280;61944;52.538;6.108;2023-03-19T02:45:10;100999.97;;;9.84;100.00
73651;BME280;61944;52.538;6.108;2023-03-19T02:47:36;100993.75;;;9.71;100.00
73651;BME280;61944;52.538;6.108;2023-03-19T02:50:02;100998.75;;;9.62;100.00
73651;BME280;61944;52.538;6.108;2023-03-19T02:52:27;100996.31;;;9.60;100.00
73651;BME280;61944;52.538;6.108;2023-03-19T02:54:52;101002.13;;;9.71;100.00
73651;BME280;61944;52.538;6.108;2023-03-19T02:57:18;100990.59;;;9.72;100.00
73651;BME280;61944;52.538;6.108;2023-03-19T02:59:43;100999.13;;;9.60;100.00
73651;BME280;61944;52.538;6.108;2023-03-19T03:02:08;101002.00;;;9.64;100.00
73651;BME280;61944;52.538;6.108;2023-03-19T03:04:34;101005.50;;;9.61;100.00
73651;BME280;61944;52.538;6.108;2023-03-19T03:07:02;101014.19;;;9.55;100.00
73651;BME280;61944;52.538;6.108;2023-03-19T03:09:30;101007.88;;;9.39;100.00
73651;BME280;61944;52.538;6.108;2023-03-19T03:11:56;101008.88;;;9.50;100.00
73651;BME280;61944;52.538;6.108;2023-03-19T03:14:21;101015.88;;;9.60;100.00
73651;BME280;61944;52.538;6.108;2023-03-19T03:16:47;101018.53;;;9.72;100.00
73651;BME280;61944;52.538;6.108;2023-03-19T03:19:13;101019.41;;;9.76;100.00
73651;BME280;61944;52.538;6.108;2023-03-19T03:21:38;101023.38;;;9.75;100.00
73651;BME280;61944;52.538;6.108;2023-03-19T03:24:04;101015.09;;;9.60;100.00
73651;BME280;61944;52.538;6.108;2023-03-19T03:26:29;101025.38;;;9.55;100.00
73651;BME280;61944;52.538;6.108;2023-03-19T03:28:55;101022.94;;;9.73;100.00
73651;BME280;61944;52.538;6.108;2023-03-19T03:31:21;101024.34;;;9.83;100.00
73651;BME280;61944;52.538;6.108;2023-03-19T03:33:46;101014.16;;;9.94;100.00
73651;BME280;61944;52.538;6.108;2023-03-19T03:36:13;101018.72;;;10.03;100.00
73651;BME280;61944;52.538;6.108;2023-03-19T03:38:38;101018.78;;;10.06;100.00
73651;BME280;61944;52.538;6.108;2023-03-19T03:41:04;101011.13;;;10.03;100.00
73651;BME280;61944;52.538;6.108;2023-03-19T03:43:30;101009.47;;;9.79;100.00
73651;BME280;61944;52.538;6.108;2023-03-19T03:45:55;101021.38;;;9.76;100.00
73651;BME280;61944;52.538;6.108;2023-03-19T03:48:20;101024.94;;;9.73;100.00
73651;BME280;61944;52.538;6.108;2023-03-19T03:50:46;101022.69;;;9.82;100.00
73651;BME280;61944;52.538;6.108;2023-03-19T03:53:12;101026.69;;;9.81;100.00
73651;BME280;61944;52.538;6.108;2023-03-19T03:55:38;101025.28;;;9.91;100.00
73651;BME280;61944;52.538;6.108;2023-03-19T03:58:04;101031.97;;;10.06;100.00
73651;BME280;61944;52.538;6.108;2023-03-19T04:00:30;101034.09;;;10.12;100.00
73651;BME280;61944;52.538;6.108;2023-03-19T04:02:55;101032.94;;;9.74;100.00
73651;BME280;61944;52.538;6.108;2023-03-19T04:05:21;101036.09;;;9.73;100.00
73651;BME280;61944;52.538;6.108;2023-03-19T04:07:47;101028.88;;;9.91;100.00
73651;BME280;61944;52.538;6.108;2023-03-19T04:10:13;101033.00;;;9.97;100.00
73651;BME280;61944;52.538;6.108;2023-03-19T04:12:40;101035.81;;;9.97;100.00
73651;BME280;61944;52.538;6.108;2023-03-19T04:15:08;101033.25;;;9.89;100.00
73651;BME280;61944;52.538;6.108;2023-03-19T04:17:34;101034.75;;;9.86;100.00
73651;BME280;61944;52.538;6.108;2023-03-19T04:20:00;101046.09;;;9.93;100.00
73651;BME280;61944;52.538;6.108;2023-03-19T04:22:26;101042.72;;;9.84;100.00
73651;BME280;61944;52.538;6.108;2023-03-19T04:24:52;101053.25;;;9.91;100.00
73651;BME280;61944;52.538;6.108;2023-03-19T04:27:17;101046.03;;;9.90;100.00
73651;BME280;61944;52.538;6.108;2023-03-19T04:29:43;101051.19;;;9.88;100.00
73651;BME280;61944;52.538;6.108;2023-03-19T04:32:08;101042.78;;;9.88;100.00
73651;BME280;61944;52.538;6.108;2023-03-19T04:34:33;101043.25;;;9.70;100.00
73651;BME280;61944;52.538;6.108;2023-03-19T04:36:59;101044.56;;;9.76;100.00
73651;BME280;61944;52.538;6.108;2023-03-19T04:39:24;101051.56;;;9.67;100.00
73651;BME280;61944;52.538;6.108;2023-03-19T04:41:50;101039.22;;;9.68;100.00
73651;BME280;61944;52.538;6.108;2023-03-19T04:44:15;101043.97;;;9.67;100.00
73651;BME280;61944;52.538;6.108;2023-03-19T04:46:44;101042.16;;;9.55;100.00
73651;BME280;61944;52.538;6.108;2023-03-19T04:49:11;101045.66;;;9.52;100.00
73651;BME280;61944;52.538;6.108;2023-03-19T04:51:36;101051.84;;;9.62;100.00
73651;BME280;61944;52.538;6.108;2023-03-19T04:54:02;101052.31;;;9.64;100.00
73651;BME280;61944;52.538;6.108;2023-03-19T04:56:28;101052.00;;;9.69;100.00
73651;BME280;61944;52.538;6.108;2023-03-19T04:58:53;101047.50;;;9.45;100.00
73651;BME280;61944;52.538;6.108;2023-03-19T05:01:19;101047.41;;;9.41;100.00
73651;BME280;61944;52.538;6.108;2023-03-19T05:03:47;101054.63;;;9.42;100.00
73651;BME280;61944;52.538;6.108;2023-03-19T05:06:12;101048.06;;;9.34;100.00
73651;BME280;61944;52.538;6.108;2023-03-19T05:08:37;101041.69;;;9.34;100.00
73651;BME280;61944;52.538;6.108;2023-03-19T05:11:03;101039.13;;;9.09;100.00
73651;BME280;61944;52.538;6.108;2023-03-19T05:13:28;101051.53;;;9.28;100.00
73651;BME280;61944;52.538;6.108;2023-03-19T05:15:54;101054.69;;;9.10;100.00
73651;BME280;61944;52.538;6.108;2023-03-19T05:18:20;101056.25;;;9.08;100.00
73651;BME280;61944;52.538;6.108;2023-03-19T05:20:46;101056.25;;;9.08;100.00
73651;BME280;61944;52.538;6.108;2023-03-19T05:23:12;101054.09;;;9.01;100.00
73651;BME280;61944;52.538;6.108;2023-03-19T05:25:37;101053.66;;;8.99;100.00
73651;BME280;61944;52.538;6.108;2023-03-19T05:28:03;101059.44;;;8.90;100.00
73651;BME280;61944;52.538;6.108;2023-03-19T05:30:29;101067.16;;;8.97;100.00
73651;BME280;61944;52.538;6.108;2023-03-19T05:32:57;101060.50;;;9.02;100.00
73651;BME280;61944;52.538;6.108;2023-03-19T05:35:23;101070.06;;;9.01;100.00
73651;BME280;61944;52.538;6.108;2023-03-19T05:37:48;101061.13;;;9.11;100.00
73651;BME280;61944;52.538;6.108;2023-03-19T05:40:14;101078.84;;;9.19;100.00
73651;BME280;61944;52.538;6.108;2023-03-19T05:42:41;101071.00;;;9.08;100.00
73651;BME280;61944;52.538;6.108;2023-03-19T05:45:06;101070.41;;;8.99;100.00
73651;BME280;61944;52.538;6.108;2023-03-19T05:47:32;101077.78;;;9.07;100.00
73651;BME280;61944;52.538;6.108;2023-03-19T05:49:59;101073.44;;;9.26;100.00
73651;BME280;61944;52.538;6.108;2023-03-19T05:52:24;101067.84;;;9.26;100.00
73651;BME280;61944;52.538;6.108;2023-03-19T05:54:50;101074.88;;;9.20;100.00
73651;BME280;61944;52.538;6.108;2023-03-19T05:57:15;101079.06;;;8.94;100.00
73651;BME280;61944;52.538;6.108;2023-03-19T05:59:41;101086.94;;;9.24;100.00
73651;BME280;61944;52.538;6.108;2023-03-19T06:02:07;101090.91;;;9.23;100.00
73651;BME280;61944;52.538;6.108;2023-03-19T06:04:32;101091.44;;;9.12;100.00
73651;BME280;61944;52.538;6.108;2023-03-19T06:06:57;101098.19;;;9.27;100.00
73651;BME280;61944;52.538;6.108;2023-03-19T06:09:23;101093.53;;;9.00;100.00
73651;BME280;61944;52.538;6.108;2023-03-19T06:11:49;101085.38;;;8.91;100.00
73651;BME280;61944;52.538;6.108;2023-03-19T06:14:14;101089.88;;;8.80;100.00
73651;BME280;61944;52.538;6.108;2023-03-19T06:16:40;101097.81;;;8.78;100.00
73651;BME280;61944;52.538;6.108;2023-03-19T06:19:05;101093.09;;;8.98;100.00
73651;BME280;61944;52.538;6.108;2023-03-19T06:21:31;101097.53;;;8.99;100.00
73651;BME280;61944;52.538;6.108;2023-03-19T06:23:57;101106.06;;;9.22;100.00
73651;BME280;61944;52.538;6.108;2023-03-19T06:26:23;101112.78;;;9.21;100.00
73651;BME280;61944;52.538;6.108;2023-03-19T06:28:49;101114.25;;;9.14;100.00
73651;BME280;61944;52.538;6.108;2023-03-19T06:31:15;101111.47;;;8.99;100.00
73651;BME280;61944;52.538;6.108;2023-03-19T06:33:41;101116.13;;;9.10;100.00
73651;BME280;61944;52.538;6.108;2023-03-19T06:36:06;101114.19;;;9.11;100.00
73651;BME280;61944;52.538;6.108;2023-03-19T06:38:32;101120.22;;;9.13;100.00
73651;BME280;61944;52.538;6.108;2023-03-19T06:40:57;101130.44;;;9.25;100.00
73651;BME280;61944;52.538;6.108;2023-03-19T06:43:22;101129.41;;;9.13;100.00
73651;BME280;61944;52.538;6.108;2023-03-19T06:45:48;101140.13;;;9.11;100.00
73651;BME280;61944;52.538;6.108;2023-03-19T06:48:13;101135.88;;;9.02;100.00
73651;BME280;61944;52.538;6.108;2023-03-19T06:50:40;101128.13;;;8.95;100.00
73651;BME280;61944;52.538;6.108;2023-03-19T06:53:06;101131.38;;;8.97;100.00
73651;BME280;61944;52.538;6.108;2023-03-19T06:55:31;101131.09;;;9.02;100.00
73651;BME280;61944;52.538;6.108;2023-03-19T06:57:57;101138.47;;;9.10;100.00
73651;BME280;61944;52.538;6.108;2023-03-19T07:00:22;101137.88;;;9.17;100.00
73651;BME280;61944;52.538;6.108;2023-03-19T07:02:48;101139.47;;;9.02;100.00
73651;BME280;61944;52.538;6.108;2023-03-19T07:05:14;101143.91;;;9.03;100.00
73651;BME280;61944;52.538;6.108;2023-03-19T07:07:39;101153.72;;;9.13;100.00
73651;BME280;61944;52.538;6.108;2023-03-19T07:10:05;101154.88;;;9.12;100.00
73651;BME280;61944;52.538;6.108;2023-03-19T07:12:31;101157.13;;;9.06;100.00
73651;BME280;61944;52.538;6.108;2023-03-19T07:14:57;101156.88;;;9.11;100.00
73651;BME280;61944;52.538;6.108;2023-03-19T07:17:23;101163.34;;;9.15;100.00
73651;BME280;61944;52.538;6.108;2023-03-19T07:19:49;101159.81;;;9.19;100.00
73651;BME280;61944;52.538;6.108;2023-03-19T07:22:15;101160.28;;;9.21;100.00
73651;BME280;61944;52.538;6.108;2023-03-19T07:24:40;101171.53;;;9.24;100.00
73651;BME280;61944;52.538;6.108;2023-03-19T07:27:06;101165.06;;;9.20;100.00
73651;BME280;61944;52.538;6.108;2023-03-19T07:29:31;101176.50;;;9.31;100.00
73651;BME280;61944;52.538;6.108;2023-03-19T07:31:57;101180.19;;;9.35;100.00
73651;BME280;61944;52.538;6.108;2023-03-19T07:34:22;101173.44;;;9.36;100.00
73651;BME280;61944;52.538;6.108;2023-03-19T07:36:47;101181.63;;;9.45;100.00
73651;BME280;61944;52.538;6.108;2023-03-19T07:39:13;101178.72;;;9.41;100.00
73651;BME280;61944;52.538;6.108;2023-03-19T07:41:41;101175.13;;;9.41;100.00
73651;BME280;61944;52.538;6.108;2023-03-19T07:44:09;101188.91;;;9.49;100.00
73651;BME280;61944;52.538;6.108;2023-03-19T07:46:35;101188.09;;;9.49;100.00
73651;BME280;61944;52.538;6.108;2023-03-19T07:49:00;101193.94;;;9.60;100.00
73651;BME280;61944;52.538;6.108;2023-03-19T07:51:25;101197.63;;;9.64;100.00
73651;BME280;61944;52.538;6.108;2023-03-19T07:53:51;101192.41;;;9.62;100.00
73651;BME280;61944;52.538;6.108;2023-03-19T07:56:16;101201.31;;;9.68;100.00
73651;BME280;61944;52.538;6.108;2023-03-19T07:58:42;101203.38;;;9.71;100.00
73651;BME280;61944;52.538;6.108;2023-03-19T08:01:07;101209.13;;;9.78;100.00
73651;BME280;61944;52.538;6.108;2023-03-19T08:03:32;101215.25;;;9.84;100.00
73651;BME280;61944;52.538;6.108;2023-03-19T08:05:58;101210.19;;;9.89;100.00
73651;BME280;61944;52.538;6.108;2023-03-19T08:08:23;101209.91;;;9.94;100.00
73651;BME280;61944;52.538;6.108;2023-03-19T08:10:49;101213.50;;;9.95;100.00
73651;BME280;61944;52.538;6.108;2023-03-19T08:13:17;101212.25;;;9.92;100.00
73651;BME280;61944;52.538;6.108;2023-03-19T08:15:42;101218.28;;;9.94;100.00
73651;BME280;61944;52.538;6.108;2023-03-19T08:18:07;101225.63;;;9.83;100.00
73651;BME280;61944;52.538;6.108;2023-03-19T08:20:36;101224.28;;;9.77;100.00
73651;BME280;61944;52.538;6.108;2023-03-19T08:23:01;101223.38;;;9.73;100.00
73651;BME280;61944;52.538;6.108;2023-03-19T08:25:27;101232.66;;;9.77;100.00
73651;BME280;61944;52.538;6.108;2023-03-19T08:27:56;101220.94;;;9.71;100.00
73651;BME280;61944;52.538;6.108;2023-03-19T08:30:22;101234.63;;;9.92;100.00
73651;BME280;61944;52.538;6.108;2023-03-19T08:32:47;101242.09;;;9.88;100.00
73651;BME280;61944;52.538;6.108;2023-03-19T08:35:15;101235.34;;;9.89;100.00
73651;BME280;61944;52.538;6.108;2023-03-19T08:37:40;101238.31;;;9.96;100.00
73651;BME280;61944;52.538;6.108;2023-03-19T08:40:06;101239.41;;;9.92;100.00
73651;BME280;61944;52.538;6.108;2023-03-19T08:42:32;101246.34;;;9.98;100.00
73651;BME280;61944;52.538;6.108;2023-03-19T08:44:58;101238.47;;;10.04;100.00
73651;BME280;61944;52.538;6.108;2023-03-19T08:47:23;101242.09;;;10.04;100.00
73651;BME280;61944;52.538;6.108;2023-03-19T08:49:50;101245.41;;;10.10;100.00
73651;BME280;61944;52.538;6.108;2023-03-19T08:52:16;101255.41;;;10.11;100.00
73651;BME280;61944;52.538;6.108;2023-03-19T08:54:42;101258.22;;;10.11;100.00
73651;BME280;61944;52.538;6.108;2023-03-19T08:57:07;101261.59;;;10.20;100.00
73651;BME280;61944;52.538;6.108;2023-03-19T08:59:33;101268.16;;;10.28;100.00
73651;BME280;61944;52.538;6.108;2023-03-19T09:01:58;101286.22;;;10.30;100.00
73651;BME280;61944;52.538;6.108;2023-03-19T09:04:24;101276.56;;;10.28;100.00
73651;BME280;61944;52.538;6.108;2023-03-19T09:06:49;101286.41;;;10.22;100.00
73651;BME280;61944;52.538;6.108;2023-03-19T09:09:17;101276.41;;;10.21;100.00
73651;BME280;61944;52.538;6.108;2023-03-19T09:11:43;101287.06;;;10.15;100.00
73651;BME280;61944;52.538;6.108;2023-03-19T09:14:08;101287.66;;;10.24;100.00
73651;BME280;61944;52.538;6.108;2023-03-19T09:16:35;101289.31;;;10.25;100.00
73651;BME280;61944;52.538;6.108;2023-03-19T09:19:01;101292.38;;;10.20;100.00
73651;BME280;61944;52.538;6.108;2023-03-19T09:21:26;101297.59;;;10.22;100.00
73651;BME280;61944;52.538;6.108;2023-03-19T09:23:51;101297.16;;;10.35;100.00
73651;BME280;61944;52.538;6.108;2023-03-19T09:26:18;101301.91;;;10.35;100.00
73651;BME280;61944;52.538;6.108;2023-03-19T09:28:43;101298.75;;;10.36;100.00
73651;BME280;61944;52.538;6.108;2023-03-19T09:31:09;101305.56;;;10.35;100.00
73651;BME280;61944;52.538;6.108;2023-03-19T09:33:35;101309.69;;;10.42;100.00
73651;BME280;61944;52.538;6.108;2023-03-19T09:36:01;101311.03;;;10.48;100.00
73651;BME280;61944;52.538;6.108;2023-03-19T09:38:26;101310.81;;;10.56;100.00
73651;BME280;61944;52.538;6.108;2023-03-19T09:46:31;101327.97;;;10.55;100.00
73651;BME280;61944;52.538;6.108;2023-03-19T09:49:05;101330.16;;;10.46;100.00
73651;BME280;61944;52.538;6.108;2023-03-19T09:51:47;101328.53;;;10.64;100.00
73651;BME280;61944;52.538;6.108;2023-03-19T09:54:28;101325.16;;;10.74;100.00
73651;BME280;61944;52.538;6.108;2023-03-19T09:56:55;101335.59;;;11.16;100.00
73651;BME280;61944;52.538;6.108;2023-03-19T09:59:22;101322.59;;;11.05;100.00
73651;BME280;61944;52.538;6.108;2023-03-19T10:01:53;101326.56;;;11.04;100.00
73651;BME280;61944;52.538;6.108;2023-03-19T10:07:29;101334.72;;;11.12;100.00
73651;BME280;61944;52.538;6.108;2023-03-19T10:12:58;101336.06;;;10.99;100.00
73651;BME280;61944;52.538;6.108;2023-03-19T10:15:29;101334.16;;;11.03;100.00
73651;BME280;61944;52.538;6.108;2023-03-19T10:18:05;101346.47;;;11.41;100.00
73651;BME280;61944;52.538;6.108;2023-03-19T10:23:11;101340.31;;;11.12;100.00
73651;BME280;61944;52.538;6.108;2023-03-19T10:25:39;101347.09;;;11.31;100.00
73651;BME280;61944;52.538;6.108;2023-03-19T10:28:13;101338.75;;;11.15;100.00
73651;BME280;61944;52.538;6.108;2023-03-19T10:30:41;101334.59;;;11.05;100.00
73651;BME280;61944;52.538;6.108;2023-03-19T10:35:47;101340.25;;;11.28;100.00
73651;BME280;61944;52.538;6.108;2023-03-19T10:38:24;101340.59;;;11.27;100.00
73651;BME280;61944;52.538;6.108;2023-03-19T10:41:28;101346.34;;;11.34;100.00
73651;BME280;61944;52.538;6.108;2023-03-19T10:44:00;101346.16;;;11.46;100.00
73651;BME280;61944;52.538;6.108;2023-03-19T10:46:26;101354.75;;;11.57;100.00
73651;BME280;61944;52.538;6.108;2023-03-19T10:48:52;101348.09;;;11.42;100.00
73651;BME280;61944;52.538;6.108;2023-03-19T10:51:25;101342.66;;;11.76;100.00
73651;BME280;61944;52.538;6.108;2023-03-19T10:53:52;101345.88;;;11.51;100.00
73651;BME280;61944;52.538;6.108;2023-03-19T10:56:26;101348.00;;;12.04;100.00
73651;BME280;61944;52.538;6.108;2023-03-19T10:58:57;101345.50;;;11.99;100.00
73651;BME280;61944;52.538;6.108;2023-03-19T11:01:26;101350.72;;;12.00;100.00
73651;BME280;61944;52.538;6.108;2023-03-19T11:03:57;101347.94;;;12.00;100.00
73651;BME280;61944;52.538;6.108;2023-03-19T11:06:36;101349.84;;;11.96;100.00
73651;BME280;61944;52.538;6.108;2023-03-19T11:11:48;101346.63;;;11.94;100.00
73651;BME280;61944;52.538;6.108;2023-03-19T11:17:15;101340.44;;;12.08;100.00
73651;BME280;61944;52.538;6.108;2023-03-19T11:19:48;101356.84;;;13.65;100.00
73651;BME280;61944;52.538;6.108;2023-03-19T11:22:20;101351.63;;;14.11;100.00
73651;BME280;61944;52.538;6.108;2023-03-19T11:24:54;101353.81;;;13.84;100.00
73651;BME280;61944;52.538;6.108;2023-03-19T11:27:32;101356.47;;;12.95;100.00
73651;BME280;61944;52.538;6.108;2023-03-19T11:29:59;101352.84;;;12.64;100.00
73651;BME280;61944;52.538;6.108;2023-03-19T11:35:14;101349.34;;;12.71;100.00
73651;BME280;61944;52.538;6.108;2023-03-19T11:40:36;101348.53;;;12.70;100.00
73651;BME280;61944;52.538;6.108;2023-03-19T11:48:18;101354.59;;;13.06;100.00
73651;BME280;61944;52.538;6.108;2023-03-19T11:51:13;101351.53;;;12.85;100.00
73651;BME280;61944;52.538;6.108;2023-03-19T12:02:20;101355.81;;;12.75;100.00
73651;BME280;61944;52.538;6.108;2023-03-19T12:12:45;101373.84;;;13.04;100.00
73651;BME280;61944;52.538;6.108;2023-03-19T12:15:19;101369.75;;;12.98;100.00
73651;BME280;61944;52.538;6.108;2023-03-19T12:18:00;101372.06;;;12.89;100.00
73651;BME280;61944;52.538;6.108;2023-03-19T12:20:50;101371.94;;;12.81;100.00
73651;BME280;61944;52.538;6.108;2023-03-19T12:23:44;101372.66;;;12.75;100.00
73651;BME280;61944;52.538;6.108;2023-03-19T12:26:37;101382.94;;;12.64;100.00
73651;BME280;61944;52.538;6.108;2023-03-19T12:29:32;101378.47;;;12.89;100.00
73651;BME280;61944;52.538;6.108;2023-03-19T12:34:34;101376.81;;;12.85;100.00
73651;BME280;61944;52.538;6.108;2023-03-19T12:37:52;101374.09;;;12.61;100.00
73651;BME280;61944;52.538;6.108;2023-03-19T12:42:56;101388.00;;;12.51;100.00
73651;BME280;61944;52.538;6.108;2023-03-19T12:48:51;101383.88;;;12.45;100.00
73651;BME280;61944;52.538;6.108;2023-03-19T12:51:12;101385.97;;;12.25;100.00
73651;BME280;61944;52.538;6.108;2023-03-19T12:56:12;101387.63;;;12.52;100.00
73651;BME280;61944;52.538;6.108;2023-03-19T12:59:01;101386.13;;;12.62;100.00
73651;BME280;61944;52.538;6.108;2023-03-19T13:01:33;101383.03;;;12.71;100.00
73651;BME280;61944;52.538;6.108;2023-03-19T13:04:18;101387.66;;;12.56;100.00
73651;BME280;61944;52.538;6.108;2023-03-19T13:06:52;101388.44;;;12.56;100.00
73651;BME280;61944;52.538;6.108;2023-03-19T13:09:27;101389.66;;;12.86;100.00
73651;BME280;61944;52.538;6.108;2023-03-19T13:11:59;101406.44;;;12.78;100.00
73651;BME280;61944;52.538;6.108;2023-03-19T13:14:48;101397.66;;;12.84;100.00
73651;BME280;61944;52.538;6.108;2023-03-19T13:19:50;101408.81;;;12.76;100.00
73651;BME280;61944;52.538;6.108;2023-03-19T13:22:20;101410.53;;;12.58;100.00
73651;BME280;61944;52.538;6.108;2023-03-19T13:24:49;101407.03;;;12.65;100.00
73651;BME280;61944;52.538;6.108;2023-03-19T13:27:33;101404.56;;;12.90;100.00
73651;BME280;61944;52.538;6.108;2023-03-19T13:32:39;101413.84;;;12.94;100.00
73651;BME280;61944;52.538;6.108;2023-03-19T13:38:01;101412.78;;;12.75;100.00
73651;BME280;61944;52.538;6.108;2023-03-19T13:43:42;101417.72;;;13.12;100.00
73651;BME280;61944;52.538;6.108;2023-03-19T13:56:31;101415.50;;;12.98;100.00
73651;BME280;61944;52.538;6.108;2023-03-19T13:59:32;101413.84;;;12.94;100.00
73651;BME280;61944;52.538;6.108;2023-03-19T14:01:59;101409.75;;;12.88;100.00
73651;BME280;61944;52.538;6.108;2023-03-19T14:04:29;101423.22;;;12.75;100.00
73651;BME280;61944;52.538;6.108;2023-03-19T14:09:40;101426.53;;;12.80;100.00
73651;BME280;61944;52.538;6.108;2023-03-19T14:14:46;101433.53;;;12.94;100.00
73651;BME280;61944;52.538;6.108;2023-03-19T14:17:15;101423.38;;;12.86;100.00
73651;BME280;61944;52.538;6.108;2023-03-19T14:19:42;101425.44;;;12.62;100.00